createdAt,value
2022-12-23T00:00:45.285Z,9.50
2022-12-23T00:03:12.715Z,8.48
2022-12-23T00:05:40.634Z,8.27
2022-12-23T00:08:08.690Z,8.57
2022-12-23T00:10:40.088Z,8.95
2022-12-23T00:13:27.240Z,8.93
2022-12-23T00:16:06.691Z,9.40
2022-12-23T00:18:34.977Z,9.27
2022-12-23T00:21:09.431Z,8.25
2022-12-23T00:23:39.300Z,8.07
2022-12-23T00:26:07.181Z,9.23
2022-12-23T00:28:34.501Z,8.23
2022-12-23T00:31:03.630Z,9.05
2022-12-23T00:33:37.832Z,8.20
2022-12-23T00:36:12.746Z,8.35
2022-12-23T00:38:58.511Z,8.18
2022-12-23T00:41:44.259Z,7.88
2022-12-23T00:44:11.620Z,10.02
2022-12-23T00:46:38.685Z,9.70
2022-12-23T00:49:24.722Z,10.18
2022-12-23T00:51:52.289Z,8.23
2022-12-23T00:54:57.382Z,9.45
2022-12-23T00:58:01.784Z,9.95
2022-12-23T01:01:25.388Z,8.68
2022-12-23T01:04:48.642Z,8.70
2022-12-23T01:07:53.250Z,7.63
2022-12-23T01:10:57.620Z,7.88
2022-12-23T01:13:24.704Z,10.93
2022-12-23T01:15:51.813Z,8.18
2022-12-23T01:18:19.395Z,9.77
2022-12-23T01:20:46.516Z,9.98
2022-12-23T01:23:13.599Z,8.40
2022-12-23T01:25:40.659Z,9.38
2022-12-23T01:30:52.265Z,11.13
2022-12-23T01:33:19.483Z,8.43
2022-12-23T01:35:47.280Z,9.55
2022-12-23T01:38:14.743Z,10.68
2022-12-23T01:43:51.935Z,9.85
2022-12-23T01:46:19.189Z,10.68
2022-12-23T01:48:51.978Z,10.52
2022-12-23T01:51:25.464Z,11.27
2022-12-23T01:53:59.034Z,8.68
2022-12-23T01:56:34.786Z,11.98
2022-12-23T02:02:37.778Z,10.65
2022-12-23T02:05:05.347Z,10.95
2022-12-23T02:07:51.722Z,12.80
2022-12-23T02:10:18.883Z,13.38
2022-12-23T02:13:10.129Z,13.13
2022-12-23T02:16:05.166Z,12.10
2022-12-23T02:19:14.615Z,13.43
2022-12-23T02:22:17.004Z,13.20
2022-12-23T02:24:52.625Z,14.38
2022-12-23T02:27:43.066Z,15.43
2022-12-23T02:34:09.489Z,12.77
2022-12-23T02:37:14.043Z,13.65
2022-12-23T02:40:18.564Z,12.60
2022-12-23T02:45:59.278Z,15.05
2022-12-23T02:48:35.474Z,15.60
2022-12-23T02:51:05.507Z,15.25
2022-12-23T02:56:28.428Z,12.40
2022-12-23T02:59:15.657Z,15.38
2022-12-23T03:04:29.204Z,15.15
2022-12-23T03:06:57.632Z,15.13
2022-12-23T03:09:45.141Z,14.82
2022-12-23T03:12:21.050Z,16.42
2022-12-23T03:15:18.678Z,15.00
2022-12-23T03:18:13.933Z,15.90
2022-12-23T03:21:07.060Z,16.08
2022-12-23T03:23:44.261Z,16.45
2022-12-23T03:26:38.102Z,14.93
2022-12-23T03:29:08.924Z,13.75
2022-12-23T03:31:38.046Z,14.07
2022-12-23T03:34:10.661Z,14.48
2022-12-23T03:42:29.284Z,14.68
2022-12-23T03:48:21.782Z,9.85
2022-12-23T03:51:26.255Z,11.95
2022-12-23T03:57:54.895Z,14.25
2022-12-23T04:00:59.987Z,14.82
2022-12-23T04:04:04.472Z,13.65
2022-12-23T04:07:09.421Z,13.75
2022-12-23T04:10:13.929Z,16.15
2022-12-23T04:13:18.607Z,13.52
2022-12-23T04:15:46.309Z,12.77
2022-12-23T04:18:13.753Z,14.25
2022-12-23T04:23:25.661Z,15.23
2022-12-23T04:34:06.652Z,15.07
2022-12-23T04:36:33.756Z,15.40
2022-12-23T04:43:00.308Z,10.88
2022-12-23T04:46:05.152Z,13.40
2022-12-23T04:58:39.221Z,11.13
2022-12-23T05:04:30.969Z,13.63
2022-12-23T05:10:20.838Z,14.38
2022-12-23T05:12:48.012Z,14.52
2022-12-23T05:17:59.458Z,11.80
2022-12-23T05:24:26.131Z,11.23
2022-12-23T05:27:30.468Z,10.48
2022-12-23T05:34:02.333Z,10.05
2022-12-23T05:37:10.185Z,8.57
2022-12-23T05:40:18.455Z,8.63
2022-12-23T05:43:26.167Z,10.50
2022-12-23T05:45:53.700Z,9.90
2022-12-23T05:48:20.991Z,10.95
2022-12-23T05:50:52.493Z,11.07
2022-12-23T05:53:20.512Z,11.20
2022-12-23T05:55:48.280Z,12.18
2022-12-23T05:58:15.811Z,9.23
2022-12-23T06:00:43.307Z,9.30
2022-12-23T06:03:12.110Z,11.55
2022-12-23T06:05:40.592Z,9.73
2022-12-23T06:10:52.487Z,11.73
2022-12-23T06:13:19.619Z,11.00
2022-12-23T06:16:24.443Z,12.57
2022-12-23T06:22:50.924Z,12.20
2022-12-23T06:25:55.875Z,12.23
2022-12-23T06:28:23.351Z,12.80
2022-12-23T06:30:54.525Z,13.55
2022-12-23T06:33:22.646Z,13.02
2022-12-23T06:35:50.057Z,13.48
2022-12-23T06:41:02.221Z,14.32
2022-12-23T06:43:29.208Z,15.40
2022-12-23T06:45:56.382Z,14.00
2022-12-23T06:48:23.626Z,14.50
2022-12-23T06:50:50.666Z,12.02
2022-12-23T06:53:17.789Z,13.57
2022-12-23T06:55:44.986Z,13.60
2022-12-23T06:58:12.235Z,12.70
2022-12-23T07:00:39.554Z,13.25
2022-12-23T07:03:06.624Z,13.25
2022-12-23T07:05:37.549Z,11.85
2022-12-23T07:08:05.642Z,13.25
2022-12-23T07:10:33.890Z,12.82
2022-12-23T07:20:03.925Z,15.13
2022-12-23T07:22:50.495Z,15.15
2022-12-23T07:28:40.001Z,17.33
2022-12-23T07:31:45.044Z,17.17
2022-12-23T07:34:49.655Z,17.98
2022-12-23T07:37:16.739Z,17.95
2022-12-23T07:39:44.106Z,16.98
2022-12-23T07:44:58.210Z,14.55
2022-12-23T07:50:10.117Z,14.00
2022-12-23T07:58:08.590Z,14.68
2022-12-23T08:03:20.232Z,16.45
2022-12-23T08:05:47.457Z,16.73
2022-12-23T08:08:14.698Z,17.08
2022-12-23T08:10:48.094Z,16.95
2022-12-23T08:16:02.035Z,17.73
2022-12-23T08:18:34.965Z,14.07
2022-12-23T08:23:31.337Z,16.33
2022-12-23T08:28:55.792Z,18.20
2022-12-23T08:34:10.686Z,18.63
2022-12-23T08:42:44.282Z,18.23
2022-12-23T08:45:49.022Z,16.35
2022-12-23T08:48:53.480Z,17.23
2022-12-23T08:51:57.703Z,16.88
2022-12-23T08:54:25.383Z,16.08
2022-12-23T08:56:52.533Z,11.75
2022-12-23T09:02:04.359Z,15.90
2022-12-23T09:05:09.428Z,14.20
2022-12-23T09:08:13.906Z,15.25
2022-12-23T09:11:18.391Z,16.23
2022-12-23T09:14:22.819Z,15.63
2022-12-23T09:17:27.265Z,19.67
2022-12-23T09:22:38.910Z,15.57
2022-12-23T09:25:06.324Z,16.83
2022-12-23T09:30:55.661Z,31.48
2022-12-23T09:34:00.159Z,23.83
2022-12-23T09:37:04.725Z,23.17
2022-12-23T09:40:09.056Z,20.52
2022-12-23T09:43:13.334Z,22.65
2022-12-23T09:46:17.927Z,18.77
2022-12-23T09:52:44.253Z,18.05
2022-12-23T09:55:48.600Z,19.30
2022-12-23T09:58:52.916Z,25.15
2022-12-23T10:01:57.709Z,18.77
2022-12-23T10:05:03.467Z,14.93
2022-12-23T10:08:08.451Z,17.80
2022-12-23T10:11:13.055Z,15.32
2022-12-23T10:17:40.101Z,15.30
2022-12-23T10:25:52.411Z,14.93
2022-12-23T10:28:19.655Z,17.23
2022-12-23T10:31:17.316Z,16.92
2022-12-23T10:34:13.659Z,14.80
2022-12-23T10:36:57.866Z,16.38
2022-12-23T10:39:45.553Z,18.17
2022-12-23T10:42:18.688Z,18.08
2022-12-23T10:44:51.371Z,21.50
2022-12-23T10:47:39.883Z,17.83
2022-12-23T10:50:27.307Z,16.95
2022-12-23T10:52:58.410Z,17.60
2022-12-23T10:55:33.766Z,16.30
2022-12-23T10:58:18.441Z,14.80
2022-12-23T11:00:53.569Z,15.63
2022-12-23T11:03:28.642Z,15.38
2022-12-23T11:05:58.114Z,15.27
2022-12-23T11:08:29.273Z,14.02
2022-12-23T11:10:56.918Z,14.85
2022-12-23T11:13:45.468Z,15.50
2022-12-23T11:16:26.056Z,14.60
2022-12-23T11:19:05.535Z,16.55
2022-12-23T11:21:33.992Z,17.50
2022-12-23T11:24:17.952Z,16.90
2022-12-23T11:27:00.614Z,14.00
2022-12-23T11:29:44.498Z,18.20
2022-12-23T11:32:24.478Z,23.20
2022-12-23T11:34:52.793Z,12.45
2022-12-23T11:37:35.107Z,15.48
2022-12-23T11:40:04.812Z,15.40
2022-12-23T11:43:09.680Z,14.00
2022-12-23T11:46:14.337Z,15.68
2022-12-23T11:49:19.060Z,15.80
2022-12-23T11:55:45.990Z,14.60
2022-12-23T12:02:13.407Z,13.27
2022-12-23T12:08:40.084Z,14.35
2022-12-23T12:15:06.719Z,15.68
2022-12-23T12:18:11.146Z,15.68
2022-12-23T12:21:16.164Z,13.77
2022-12-23T12:24:20.876Z,14.85
2022-12-23T12:29:54.147Z,14.60
2022-12-23T12:32:38.775Z,14.82
2022-12-23T12:35:16.955Z,14.10
2022-12-23T12:45:06.930Z,12.52
2022-12-23T12:54:32.512Z,12.35
2022-12-23T12:59:45.507Z,13.05
2022-12-23T13:02:28.780Z,13.65
2022-12-23T13:08:37.962Z,12.05
2022-12-23T13:11:28.195Z,11.75
2022-12-23T13:18:00.337Z,11.55
2022-12-23T13:30:23.924Z,10.88
2022-12-23T13:33:09.766Z,27.27
2022-12-23T13:47:07.480Z,9.27
2022-12-23T13:53:33.984Z,4.28
2022-12-23T13:56:38.363Z,5.95
2022-12-23T13:59:42.953Z,6.40
2022-12-23T14:02:47.723Z,7.75
2022-12-23T14:08:43.066Z,7.50
2022-12-23T14:14:04.420Z,9.90
2022-12-23T14:19:27.488Z,5.45
2022-12-23T14:22:13.082Z,5.63
2022-12-23T14:25:06.128Z,4.05
2022-12-23T14:27:49.294Z,6.18
2022-12-23T14:30:45.942Z,4.63
2022-12-23T14:33:18.765Z,7.50
2022-12-23T14:35:45.854Z,5.40
2022-12-23T14:38:15.873Z,5.03
2022-12-23T14:40:43.148Z,4.70
2022-12-23T14:43:48.169Z,4.22
2022-12-23T14:46:53.004Z,4.40
2022-12-23T14:49:57.655Z,3.85
2022-12-23T14:53:02.312Z,4.80
2022-12-23T14:59:28.864Z,3.47
2022-12-23T15:01:59.120Z,3.75
2022-12-23T15:04:30.608Z,4.00
2022-12-23T15:07:06.275Z,3.90
2022-12-23T15:13:08.061Z,9.90
2022-12-23T15:16:12.980Z,5.13
2022-12-23T15:19:17.548Z,4.70
2022-12-23T15:22:28.481Z,5.10
2022-12-23T15:25:37.193Z,5.45
2022-12-23T15:28:42.003Z,5.07
2022-12-23T15:31:47.213Z,5.50
2022-12-23T15:34:51.779Z,5.07
2022-12-23T15:37:26.846Z,4.72
2022-12-23T15:40:03.369Z,5.70
2022-12-23T15:43:11.267Z,5.03
2022-12-23T15:45:42.911Z,4.55
2022-12-23T15:48:30.548Z,5.78
2022-12-23T15:54:36.907Z,5.40
2022-12-23T15:57:44.994Z,5.32
2022-12-23T16:00:54.270Z,6.32
2022-12-23T16:03:58.708Z,7.53
2022-12-23T16:07:03.559Z,8.05
2022-12-23T16:10:08.044Z,8.50
2022-12-23T16:13:12.475Z,9.45
2022-12-23T16:16:17.071Z,9.38
2022-12-23T16:18:47.636Z,8.63
2022-12-23T16:21:15.551Z,7.40
2022-12-23T16:23:50.480Z,10.38
2022-12-23T16:26:18.149Z,8.07
2022-12-23T16:28:49.494Z,8.70
2022-12-23T16:31:18.728Z,8.30
2022-12-23T16:33:49.393Z,9.27
2022-12-23T16:36:26.372Z,9.40
2022-12-23T16:39:05.935Z,10.27
2022-12-23T16:41:33.959Z,5.88
2022-12-23T16:44:01.365Z,9.93
2022-12-23T16:47:06.001Z,9.65
2022-12-23T16:50:10.449Z,6.30
2022-12-23T16:56:37.394Z,8.43
2022-12-23T17:05:49.298Z,7.97
2022-12-23T17:08:16.327Z,12.07
2022-12-23T17:10:47.048Z,10.82
2022-12-23T17:13:17.572Z,11.65
2022-12-23T17:18:29.965Z,10.25
2022-12-23T17:20:57.020Z,19.83
2022-12-23T17:23:30.139Z,22.75
2022-12-23T17:28:42.278Z,9.40
2022-12-23T17:31:14.757Z,12.48
2022-12-23T17:33:43.412Z,8.02
2022-12-23T17:36:11.866Z,9.02
2022-12-23T17:38:39.073Z,13.43
2022-12-23T17:43:51.042Z,9.50
2022-12-23T17:50:17.915Z,12.60
2022-12-23T17:56:44.755Z,8.30
2022-12-23T17:59:49.299Z,11.57
2022-12-23T18:02:29.636Z,10.35
2022-12-23T18:04:56.776Z,11.25
2022-12-23T18:13:02.889Z,11.40
2022-12-23T18:15:41.829Z,11.40
2022-12-23T18:18:27.461Z,11.32
2022-12-23T18:23:45.064Z,7.00
2022-12-23T18:26:50.045Z,8.48
2022-12-23T18:33:16.862Z,11.00
2022-12-23T18:36:22.222Z,10.30
2022-12-23T18:39:26.884Z,8.65
2022-12-23T18:42:31.308Z,7.70
2022-12-23T18:44:58.423Z,6.00
2022-12-23T18:47:25.493Z,10.40
2022-12-23T18:49:52.560Z,6.05
2022-12-23T18:52:19.663Z,7.10
2022-12-23T18:55:24.254Z,9.25
2022-12-23T18:58:28.738Z,9.48
2022-12-23T19:04:55.053Z,9.60
2022-12-23T19:11:21.876Z,9.35
2022-12-23T19:17:48.931Z,9.55
2022-12-23T19:20:53.430Z,10.18
2022-12-23T19:23:58.662Z,9.85
2022-12-23T19:26:25.952Z,7.68
2022-12-23T19:28:53.121Z,9.52
2022-12-23T19:31:20.431Z,9.02
2022-12-23T19:33:48.116Z,8.98
2022-12-23T19:36:22.997Z,10.18
2022-12-23T19:41:36.186Z,7.28
2022-12-23T19:44:03.952Z,9.32
2022-12-23T19:46:31.273Z,9.95
2022-12-23T19:51:43.270Z,9.18
2022-12-23T19:54:10.369Z,7.20
2022-12-23T19:59:59.617Z,5.72
2022-12-23T20:03:04.056Z,8.70
2022-12-23T20:06:08.282Z,7.78
2022-12-23T20:09:12.965Z,9.82
2022-12-23T20:11:43.406Z,10.65
2022-12-23T20:22:24.881Z,7.30
2022-12-23T20:24:51.954Z,9.20
2022-12-23T20:27:56.344Z,9.75
2022-12-23T20:31:01.317Z,8.02
2022-12-23T20:34:06.163Z,9.27
2022-12-23T20:40:33.859Z,7.03
2022-12-23T20:43:38.411Z,10.60
2022-12-23T20:46:07.572Z,9.52
2022-12-23T20:48:35.310Z,7.85
2022-12-23T20:56:38.660Z,10.43
2022-12-23T20:59:05.847Z,10.60
2022-12-23T21:08:19.409Z,10.60
2022-12-23T21:11:23.975Z,6.05
2022-12-23T21:14:28.902Z,7.70
2022-12-23T21:20:55.963Z,8.35
2022-12-23T21:27:22.083Z,8.90
2022-12-23T21:30:26.356Z,8.27
2022-12-23T21:33:30.190Z,8.00
2022-12-23T21:39:24.349Z,5.88
2022-12-23T21:45:13.888Z,9.13
2022-12-23T21:51:41.114Z,8.05
2022-12-23T21:54:10.127Z,8.93
2022-12-23T21:59:22.688Z,7.82
2022-12-23T22:01:51.083Z,8.18
2022-12-23T22:04:18.401Z,7.32
2022-12-23T22:06:45.865Z,8.20
2022-12-23T22:09:18.513Z,7.95
2022-12-23T22:14:30.875Z,8.93
2022-12-23T22:19:42.233Z,18.00
2022-12-23T22:22:09.248Z,7.57
2022-12-23T22:25:13.826Z,7.40
2022-12-23T22:28:18.580Z,8.68
2022-12-23T22:31:23.153Z,6.85
2022-12-23T22:34:27.697Z,7.93
2022-12-23T22:36:54.737Z,8.00
2022-12-23T22:39:22.227Z,8.13
2022-12-23T22:41:51.146Z,6.88
2022-12-23T22:44:19.247Z,7.32
2022-12-23T22:46:46.878Z,6.55
2022-12-23T22:49:15.360Z,7.32
2022-12-23T22:51:43.574Z,7.88
2022-12-23T22:54:11.043Z,6.18
2022-12-23T22:57:15.592Z,7.20
2022-12-23T23:00:19.867Z,6.32
2022-12-23T23:03:25.577Z,4.43
2022-12-23T23:06:30.404Z,7.30
2022-12-23T23:09:34.965Z,5.78
2022-12-23T23:12:39.355Z,5.93
2022-12-23T23:15:43.858Z,8.32
2022-12-23T23:18:48.326Z,8.68
2022-12-23T23:21:53.691Z,7.68
2022-12-23T23:24:58.548Z,12.55
2022-12-23T23:28:03.267Z,7.38
2022-12-23T23:34:32.725Z,9.68
2022-12-23T23:37:37.204Z,14.05
2022-12-23T23:40:04.989Z,9.88
2022-12-23T23:42:32.083Z,10.48
2022-12-23T23:44:59.129Z,11.07
2022-12-23T23:47:26.232Z,11.18
2022-12-23T23:49:53.520Z,11.45
2022-12-23T23:52:58.193Z,12.43
2022-12-23T23:56:02.677Z,11.60
2022-12-23T23:59:07.669Z,11.52
